Terminal Aerodrome Forecast
Issued by NWS

Home | Current Version | Previous Version | Text Only | Print | Product List | Glossary On
Versions: 1 2 3 4 5 6 7 8 9 10 11 12
000
FTAK31 PAJN 251126
TAFAWG
TAF
PAWG 251126Z 2512/2612 12005KT P6SM VCSH FEW025 BKN035 OVC050
     FM251800 29005KT P6SM VCSH BKN040 OVC050
     FM260600 VRB05KT P6SM BKN070
      AMD LTD TO CLD VIS AND WIND 2512/2515=

USA.gov is the U.S. government's official web portal to all federal, state and local government web resources and services.